Time;durP1;ratioP1;P1;durP2;ratioP2;P2;SDS_P1;SDS_P2;PMS_P1;PMS_P2;Temp;Humidity;BMP_temperature;BMP_pressure;BME280_temperature;BME280_humidity;BME280_pressure;Samples;Min_cycle;Max_cycle;Signal;HPM_P1;HPM_P2
2022/08/30 00:01:26;;;;;;;19.40;5.80;;;;;;;24.86;47.06;99322.63;25126;1309;3026602;-64
2022/08/30 00:03:56;;;;;;;22.70;6.20;;;;;;;24.84;46.99;99322.33;25146;1310;3051460;-65
2022/08/30 00:06:27;;;;;;;16.20;5.80;;;;;;;24.80;46.95;99317.25;25153;1309;3026319;-67
2022/08/30 00:08:56;;;;;;;19.20;6.40;;;;;;;24.80;47.11;99314.59;25138;1308;3027247;-66
2022/08/30 00:11:26;;;;;;;17.10;6.40;;;;;;;24.78;47.17;99317.10;25135;1311;3026709;-64
2022/08/30 00:13:56;;;;;;;15.50;6.30;;;;;;;24.75;47.30;99321.56;25209;1309;3069057;-66
2022/08/30 00:16:25;;;;;;;20.70;5.90;;;;;;;24.74;47.34;99318.45;25179;1310;3026789;-64
2022/08/30 00:18:55;;;;;;;14.80;6.50;;;;;;;24.75;47.26;99320.66;25129;1310;3026836;-66
2022/08/30 00:21:25;;;;;;;23.80;6.00;;;;;;;24.75;47.43;99320.28;25121;1308;3071312;-64
2022/08/30 00:23:54;;;;;;;16.30;5.90;;;;;;;24.75;47.50;99322.15;25068;1310;3028415;-65
2022/08/30 00:26:23;;;;;;;17.30;6.10;;;;;;;24.73;47.72;99321.30;25160;1310;3029652;-66
2022/08/30 00:28:52;;;;;;;18.80;6.20;;;;;;;24.71;47.83;99318.54;25123;1312;3071059;-69
2022/08/30 00:31:21;;;;;;;19.00;6.20;;;;;;;24.68;48.10;99316.44;25184;1310;3028771;-65
2022/08/30 00:33:50;;;;;;;21.20;6.00;;;;;;;24.63;47.95;99316.59;25114;1309;3053266;-65
2022/08/30 00:36:20;;;;;;;18.60;6.20;;;;;;;24.61;47.96;99314.81;25138;1308;3026610;-66
2022/08/30 00:38:49;;;;;;;24.90;6.60;;;;;;;24.61;47.86;99315.02;25076;1311;3054923;-65
2022/08/30 00:41:17;;;;;;;15.50;6.60;;;;;;;24.60;47.71;99314.38;25263;1309;3027233;-65
2022/08/30 00:43:46;;;;;;;24.70;6.30;;;;;;;24.61;47.61;99312.86;25104;1313;3048756;-65
2022/08/30 00:46:15;;;;;;;19.40;6.40;;;;;;;24.62;47.53;99314.91;25147;1308;3027379;-66
2022/08/30 00:48:46;;;;;;;16.60;6.00;;;;;;;24.62;48.17;99316.15;25126;1308;3059456;-64
2022/08/30 00:51:16;;;;;;;17.00;6.70;;;;;;;24.60;48.56;99317.96;25143;1312;3026563;-63
2022/08/30 00:53:48;;;;;;;24.80;6.70;;;;;;;24.56;49.07;99313.45;25175;1309;3026292;-64
2022/08/30 00:56:17;;;;;;;19.20;6.00;;;;;;;24.46;49.36;99312.71;25119;1308;3027310;-67
2022/08/30 00:58:48;;;;;;;16.30;6.60;;;;;;;24.38;49.59;99314.10;25128;1313;3026510;-67
2022/08/30 01:01:17;;;;;;;17.10;6.70;;;;;;;24.28;49.97;99315.29;25235;1308;3054087;-67
2022/08/30 01:03:47;;;;;;;18.00;6.60;;;;;;;24.20;49.95;99317.29;25165;1311;3028238;-67
2022/08/30 01:06:16;;;;;;;19.90;6.80;;;;;;;24.14;49.89;99316.21;25120;1309;3026803;-66
2022/08/30 01:08:46;;;;;;;18.90;5.90;;;;;;;24.11;50.26;99321.40;25215;1309;3026625;-66
2022/08/30 01:11:18;;;;;;;16.70;6.10;;;;;;;24.07;50.22;99318.88;25127;1309;3051697;-65
2022/08/30 01:13:47;;;;;;;18.80;7.00;;;;;;;24.08;50.04;99320.17;25112;1309;3027312;-66
2022/08/30 01:16:17;;;;;;;12.90;6.40;;;;;;;24.10;49.81;99317.02;25108;1308;3026471;-66
2022/08/30 01:18:48;;;;;;;20.30;6.30;;;;;;;24.12;49.53;99317.98;25182;1310;3028588;-67
2022/08/30 01:21:33;;;;;;;19.60;6.00;;;;;;;24.15;49.49;99317.38;25222;1309;3027094;-65
2022/08/30 01:24:03;;;;;;;18.00;6.30;;;;;;;24.17;49.79;99319.52;25162;1311;3055988;-68
2022/08/30 01:26:32;;;;;;;16.90;6.50;;;;;;;24.16;49.65;99320.89;25126;1315;3026606;-70
2022/08/30 01:29:04;;;;;;;20.50;6.10;;;;;;;24.16;49.72;99318.88;25092;1311;3026613;-69
2022/08/30 01:31:35;;;;;;;18.10;5.80;;;;;;;24.15;49.92;99324.20;25143;1312;3058355;-69
2022/08/30 01:34:06;;;;;;;17.30;5.90;;;;;;;24.11;50.10;99326.54;25160;1312;3029784;-65
2022/08/30 01:36:36;;;;;;;15.10;6.70;;;;;;;24.06;49.98;99331.48;25141;1310;3027506;-67
2022/08/30 01:39:06;;;;;;;19.80;6.40;;;;;;;23.97;50.33;99329.05;25168;1310;3026870;-65
2022/08/30 01:41:35;;;;;;;22.50;7.00;;;;;;;23.86;50.54;99330.23;25131;1312;3030564;-65
2022/08/30 01:44:06;;;;;;;17.80;6.70;;;;;;;23.78;50.76;99327.09;25154;1309;3026578;-65
2022/08/30 01:46:40;;;;;;;20.30;6.40;;;;;;;23.74;50.80;99325.54;25185;1309;3051622;-64
2022/08/30 01:49:12;;;;;;;18.40;8.00;;;;;;;23.76;50.46;99327.13;25152;1309;3071304;-64
2022/08/30 01:51:41;;;;;;;24.10;7.60;;;;;;;23.79;50.05;99322.35;25217;1308;3026627;-66
2022/08/30 01:54:10;;;;;;;25.10;7.40;;;;;;;23.83;49.82;99322.29;25136;1310;3029545;-66
2022/08/30 01:56:39;;;;;;;22.10;6.90;;;;;;;23.86;49.81;99321.84;25087;1311;3070475;-66
2022/08/30 01:59:08;;;;;;;24.70;7.00;;;;;;;23.90;49.69;99321.64;25188;1308;3028128;-68
2022/08/30 02:01:38;;;;;;;23.60;6.80;;;;;;;23.93;49.64;99320.53;25170;1308;3053737;-65
2022/08/30 02:04:08;;;;;;;20.80;6.80;;;;;;;23.94;49.48;99318.71;25116;1312;3028503;-65
2022/08/30 02:06:37;;;;;;;24.30;6.70;;;;;;;23.97;49.17;99316.48;25153;1309;3026872;-64
2022/08/30 02:09:06;;;;;;;23.40;6.90;;;;;;;24.00;48.88;99319.40;25210;1309;3028293;-65
2022/08/30 02:11:36;;;;;;;27.60;6.60;;;;;;;24.02;48.87;99323.89;25212;1308;3068642;-67
2022/08/30 02:14:05;;;;;;;19.30;6.40;;;;;;;24.04;48.96;99325.30;25135;1309;3028935;-68
2022/08/30 02:16:34;;;;;;;25.00;7.70;;;;;;;24.04;49.17;99328.56;25168;1309;3051359;-68
2022/08/30 02:19:03;;;;;;;30.40;7.40;;;;;;;24.00;49.04;99332.97;25128;1309;3027014;-66
2022/08/30 02:21:32;;;;;;;20.00;7.60;;;;;;;23.91;49.01;99330.61;25138;1309;3054197;-66
2022/08/30 02:24:01;;;;;;;22.40;6.90;;;;;;;23.86;49.01;99332.91;25238;1309;3026845;-68
2022/08/30 02:26:30;;;;;;;28.00;7.50;;;;;;;23.83;49.18;99337.96;25169;1309;3051556;-66
2022/08/30 02:29:00;;;;;;;19.60;6.90;;;;;;;23.78;49.56;99336.70;25209;1309;3026588;-66
2022/08/30 02:31:28;;;;;;;22.20;7.50;;;;;;;23.77;49.28;99337.01;25127;1309;3055731;-66
2022/08/30 02:34:00;;;;;;;15.50;6.90;;;;;;;23.77;49.22;99336.48;25175;1309;3028361;-67
2022/08/30 02:36:29;;;;;;;32.10;7.60;;;;;;;23.76;48.86;99336.42;25206;1313;3026438;-66
2022/08/30 02:38:58;;;;;;;25.60;7.90;;;;;;;23.75;47.89;99340.66;25173;1309;3026621;-66
2022/08/30 02:41:27;;;;;;;22.20;7.20;;;;;;;23.74;47.87;99342.00;25152;1309;3049043;-65
2022/08/30 02:43:59;;;;;;;25.40;8.00;;;;;;;23.73;48.14;99340.01;25182;1309;3026413;-67
2022/08/30 02:46:28;;;;;;;22.20;7.70;;;;;;;23.70;48.11;99341.80;25132;1309;3059722;-66
2022/08/30 02:48:57;;;;;;;24.10;7.20;;;;;;;23.71;47.89;99340.63;25098;1309;3026453;-64
2022/08/30 02:51:26;;;;;;;31.70;7.20;;;;;;;23.80;47.42;99341.15;25150;1308;3054444;-66
2022/08/30 02:53:55;;;;;;;30.40;7.90;;;;;;;23.97;46.99;99338.34;25192;1308;3026222;-67
2022/08/30 02:56:24;;;;;;;29.80;8.00;;;;;;;24.07;46.53;99338.93;25203;1309;3053617;-67
2022/08/30 02:58:54;;;;;;;33.90;9.40;;;;;;;24.18;46.23;99340.77;25144;1312;3026175;-67
2022/08/30 03:01:23;;;;;;;32.00;8.80;;;;;;;24.27;45.41;99340.84;25145;1309;3026726;-68
2022/08/30 03:03:52;;;;;;;39.50;7.70;;;;;;;24.37;44.85;99344.07;25190;1308;3026766;-67
2022/08/30 03:06:21;;;;;;;25.50;7.20;;;;;;;24.55;43.70;99340.88;25150;1308;3054250;-69
2022/08/30 03:08:51;;;;;;;25.70;6.90;;;;;;;24.74;43.65;99338.08;25151;1310;3026445;-67
2022/08/30 03:11:21;;;;;;;34.90;7.20;;;;;;;24.89;42.85;99342.06;25167;1308;3029606;-67
2022/08/30 03:13:50;;;;;;;22.10;6.10;;;;;;;25.04;42.01;99347.39;25208;1308;3052166;-66
2022/08/30 03:16:21;;;;;;;24.10;6.00;;;;;;;25.18;41.53;99351.92;25168;1309;3026465;-67
2022/08/30 03:18:50;;;;;;;30.00;6.50;;;;;;;25.30;41.30;99355.65;25107;1308;3027201;-67
2022/08/30 03:21:19;;;;;;;24.50;6.30;;;;;;;25.40;41.20;99355.81;25157;1308;3026699;-67
2022/08/30 03:23:49;;;;;;;19.00;6.20;;;;;;;25.49;41.16;99358.01;25185;1308;3055813;-65
2022/08/30 03:26:18;;;;;;;27.60;5.40;;;;;;;25.56;40.87;99356.77;25183;1309;3026712;-64
2022/08/30 03:28:46;;;;;;;25.90;6.40;;;;;;;25.57;41.23;99360.17;25123;1308;3052263;-64
2022/08/30 03:31:15;;;;;;;22.50;6.70;;;;;;;25.56;41.22;99362.33;25149;1308;3026125;-66
2022/08/30 03:33:45;;;;;;;23.40;6.50;;;;;;;25.55;41.46;99368.48;25131;1312;3054991;-65
2022/08/30 03:36:14;;;;;;;29.40;6.40;;;;;;;25.55;41.25;99365.70;25153;1309;3026662;-65
2022/08/30 03:38:43;;;;;;;25.00;5.90;;;;;;;25.57;40.62;99365.93;25132;1310;3049074;-69
2022/08/30 03:41:12;;;;;;;18.80;5.20;;;;;;;25.64;40.57;99365.98;25108;1310;3026341;-65
2022/08/30 03:43:43;;;;;;;20.60;6.20;;;;;;;25.71;40.40;99369.41;25120;1312;3069157;-66
2022/08/30 03:46:12;;;;;;;17.80;5.30;;;;;;;25.76;40.48;99367.13;25194;1308;3026976;-68
2022/08/30 03:48:42;;;;;;;25.80;5.30;;;;;;;25.82;40.41;99364.31;25177;1309;3029642;-65
2022/08/30 03:51:11;;;;;;;27.80;4.80;;;;;;;25.87;40.36;99365.45;25157;1309;3026622;-67
2022/08/30 03:53:40;;;;;;;19.00;5.20;;;;;;;25.90;40.29;99362.48;25152;1310;3026762;-66
2022/08/30 03:56:09;;;;;;;17.80;6.40;;;;;;;25.94;40.44;99369.34;25190;1309;3055329;-68
2022/08/30 03:58:39;;;;;;;26.60;6.00;;;;;;;25.97;40.66;99372.59;25132;1308;3026231;-69
2022/08/30 04:01:08;;;;;;;20.20;5.60;;;;;;;25.99;40.35;99371.78;25162;1309;3050939;-67
2022/08/30 04:03:37;;;;;;;18.20;5.90;;;;;;;26.02;40.52;99376.13;25214;1309;3026398;-65
2022/08/30 04:06:07;;;;;;;25.20;6.00;;;;;;;26.04;40.28;99373.87;25149;1309;3070672;-67
2022/08/30 04:08:37;;;;;;;24.30;5.30;;;;;;;26.06;40.15;99368.21;25212;1308;3026600;-65
2022/08/30 04:11:06;;;;;;;18.00;5.80;;;;;;;26.11;39.97;99371.39;25224;1309;3026508;-69
2022/08/30 04:13:35;;;;;;;22.20;4.80;;;;;;;26.16;40.02;99368.60;25240;1308;3027042;-68
2022/08/30 04:16:05;;;;;;;19.40;5.00;;;;;;;26.21;40.23;99372.61;25126;1312;3050275;-68
2022/08/30 04:18:34;;;;;;;19.80;5.20;;;;;;;26.24;40.05;99373.65;25250;1309;3026236;-68
2022/08/30 04:21:03;;;;;;;22.30;6.50;;;;;;;26.28;40.70;99376.80;25282;1308;3027385;-64
2022/08/30 04:23:32;;;;;;;30.30;8.70;;;;;;;26.26;44.30;99383.46;25187;1308;3051557;-67
2022/08/30 04:26:02;;;;;;;30.70;10.70;;;;;;;25.97;46.60;99391.56;25178;1310;3029610;-66
2022/08/30 04:28:32;;;;;;;31.40;11.00;;;;;;;25.50;46.96;99392.34;25157;1309;3026894;-67
2022/08/30 04:31:13;;;;;;;34.80;8.60;;;;;;;25.31;45.47;99386.02;25204;1308;3048352;-67
2022/08/30 04:33:42;;;;;;;29.70;8.20;;;;;;;25.40;43.52;99384.52;25219;1308;3052508;-69
2022/08/30 04:36:12;;;;;;;25.20;7.60;;;;;;;25.50;42.67;99386.23;25233;1308;3026367;-68
2022/08/30 04:38:42;;;;;;;26.00;9.60;;;;;;;25.51;45.84;99392.77;24435;1309;4452667;-66
2022/08/30 04:41:16;;;;;;;34.20;9.60;;;;;;;25.41;45.75;99393.55;25174;1309;3054565;-64
2022/08/30 04:43:45;;;;;;;;;;;;;;;25.36;46.24;99392.95;25204;1309;3055691;-65
2022/08/30 04:46:15;;;;;;;28.80;9.60;;;;;;;25.32;47.11;99390.08;25159;1309;3026449;-67
2022/08/30 04:48:45;;;;;;;30.20;9.10;;;;;;;25.29;47.32;99391.16;25153;1309;3026649;-67
2022/08/30 04:51:15;;;;;;;26.80;8.70;;;;;;;25.26;47.44;99391.25;25180;1310;3052124;-65
2022/08/30 04:53:44;;;;;;;27.40;8.80;;;;;;;25.25;46.95;99389.55;25179;1308;3027535;-64
2022/08/30 04:56:16;;;;;;;34.40;8.70;;;;;;;25.29;47.03;99393.27;25143;1309;3026356;-65
2022/08/30 04:58:46;;;;;;;31.40;8.50;;;;;;;25.25;46.63;99393.15;25193;1308;3026296;-65
2022/08/30 05:01:18;;;;;;;19.70;7.80;;;;;;;25.26;46.33;99390.52;25135;1309;3027366;-63
2022/08/30 05:03:47;;;;;;;25.50;7.80;;;;;;;25.35;45.83;99392.53;25103;1308;3026310;-65
2022/08/30 05:06:17;;;;;;;34.80;8.50;;;;;;;25.34;45.95;99390.49;25156;1309;3026450;-68
2022/08/30 05:08:47;;;;;;;33.90;8.00;;;;;;;25.42;44.82;99391.19;25124;1308;3027231;-64
2022/08/30 05:11:17;;;;;;;37.10;7.80;;;;;;;25.46;44.47;99395.67;25140;1312;3026286;-68
2022/08/30 05:13:46;;;;;;;43.90;9.30;;;;;;;25.50;44.17;99397.67;25156;1308;3052084;-65
2022/08/30 05:16:18;;;;;;;38.70;8.60;;;;;;;25.41;45.85;99390.98;25153;1309;3027964;-69
2022/08/30 05:18:48;;;;;;;24.20;6.90;;;;;;;25.58;44.27;99386.59;25198;1310;3027295;-69
2022/08/30 05:21:19;;;;;;;22.80;6.20;;;;;;;25.80;43.84;99386.98;25140;1308;3030293;-69
2022/08/30 05:23:49;;;;;;;27.00;5.80;;;;;;;25.99;43.37;99387.65;25234;1309;3026694;-68
2022/08/30 05:26:23;;;;;;;23.30;6.70;;;;;;;26.16;42.45;99387.95;25214;1309;3026912;-66
2022/08/30 05:28:52;;;;;;;27.00;7.70;;;;;;;26.34;43.53;99388.06;25240;1310;3049862;-66
2022/08/30 05:31:28;;;;;;;34.40;8.70;;;;;;;26.47;44.49;99385.66;25175;1309;3028314;-66
2022/08/30 05:33:57;;;;;;;32.10;7.60;;;;;;;26.60;44.46;99388.05;25178;1309;3052028;-69
2022/08/30 05:36:27;;;;;;;22.80;7.00;;;;;;;26.73;44.39;99385.77;25207;1309;3027174;-65
2022/08/30 05:38:57;;;;;;;25.60;7.30;;;;;;;26.84;44.14;99385.16;25092;1309;3069264;-65
2022/08/30 05:41:26;;;;;;;38.80;8.00;;;;;;;26.96;44.10;99385.95;25189;1310;3026416;-68
2022/08/30 05:43:56;;;;;;;35.60;8.30;;;;;;;27.08;44.01;99388.39;25192;1310;3050873;-65
2022/08/30 05:46:28;;;;;;;21.20;6.80;;;;;;;27.19;43.82;99387.59;25113;1310;3026759;-65
2022/08/30 05:48:57;;;;;;;34.60;8.20;;;;;;;27.30;43.77;99391.35;25210;1311;3027327;-65
2022/08/30 05:51:27;;;;;;;24.80;8.20;;;;;;;27.40;43.90;99394.02;25160;1311;3026893;-67
2022/08/30 05:53:57;;;;;;;34.80;8.50;;;;;;;27.49;43.84;99395.60;25163;1312;3069436;-67
2022/08/30 05:56:29;;;;;;;43.60;8.90;;;;;;;27.56;43.83;99393.91;25206;1310;3026774;-67
2022/08/30 05:58:59;;;;;;;32.70;9.20;;;;;;;27.67;43.88;99396.99;25163;1308;3027078;-65
2022/08/30 06:03:45;;;;;;;28.00;8.50;;;;;;;27.87;43.85;99393.55;31617;1315;3026097;-66
2022/08/30 06:06:14;;;;;;;35.10;10.70;;;;;;;28.16;43.46;99395.42;25100;1315;3027125;-67
2022/08/30 06:08:45;;;;;;;32.70;9.80;;;;;;;28.46;42.53;99392.37;25088;1315;3026675;-69
2022/08/30 06:11:16;;;;;;;25.40;8.40;;;;;;;28.48;41.97;99395.62;25169;1315;3028254;-67
2022/08/30 06:13:45;;;;;;;32.50;7.10;;;;;;;28.53;41.42;99399.93;25115;1318;3026423;-65
2022/08/30 06:16:12;;;;;;;32.50;7.10;;;;;;;28.54;40.43;99401.72;24141;1315;4956199;-66
2022/08/30 06:18:41;;;;;;;30.00;9.50;;;;;;;28.74;40.98;99399.55;25215;1313;3048592;-67
2022/08/30 06:21:22;;;;;;;24.20;8.10;;;;;;;28.98;40.26;99401.33;25264;1313;3026683;-64
2022/08/30 06:23:51;;;;;;;30.90;7.80;;;;;;;28.96;40.88;99403.88;25099;1313;3070901;-66
2022/08/30 06:26:20;;;;;;;45.00;8.80;;;;;;;29.00;41.56;99403.94;25115;1313;3026491;-66
2022/08/30 06:28:49;;;;;;;33.60;9.80;;;;;;;29.03;43.34;99407.42;25227;1313;3028230;-67
2022/08/30 06:31:19;;;;;;;50.10;10.40;;;;;;;29.06;44.42;99406.65;25175;1313;3068428;-67
2022/08/30 06:33:48;;;;;;;43.10;10.00;;;;;;;29.06;45.02;99408.81;25081;1315;3026873;-67
2022/08/30 06:36:20;;;;;;;41.40;10.70;;;;;;;29.10;45.08;99407.30;25178;1313;3026177;-69
2022/08/30 06:38:51;;;;;;;40.40;9.70;;;;;;;29.13;45.37;99403.71;25154;1315;3068866;-69
2022/08/30 06:41:26;;;;;;;33.90;10.30;;;;;;;29.17;45.56;99407.80;25123;1314;3026627;-67
2022/08/30 06:43:55;;;;;;;34.30;9.90;;;;;;;29.20;46.05;99409.54;25159;1315;3054700;-67
2022/08/30 06:46:31;;;;;;;34.60;9.80;;;;;;;29.21;46.63;99410.85;25193;1314;3027570;-69
2022/08/30 06:49:00;;;;;;;39.50;9.50;;;;;;;29.27;46.54;99411.32;25179;1313;3055624;-67
2022/08/30 06:51:31;;;;;;;44.10;10.00;;;;;;;29.35;46.44;99413.70;25151;1314;3027903;-66
2022/08/30 06:54:00;;;;;;;23.80;9.30;;;;;;;29.40;46.56;99414.56;25205;1313;3030179;-68
2022/08/30 06:56:30;;;;;;;35.60;10.10;;;;;;;29.46;46.00;99416.77;25126;1315;3026707;-67
2022/08/30 06:58:59;;;;;;;33.00;9.10;;;;;;;29.54;45.52;99418.73;25142;1314;3026204;-70
2022/08/30 07:01:29;;;;;;;28.70;8.10;;;;;;;29.63;45.16;99417.25;25120;1315;3054771;-71
2022/08/30 07:03:59;;;;;;;28.80;8.70;;;;;;;29.73;45.47;99415.19;25106;1315;3026848;-68
2022/08/30 07:06:29;;;;;;;20.60;7.30;;;;;;;29.75;40.80;99415.66;25100;1314;3027378;-68
2022/08/30 07:08:58;;;;;;;20.70;7.80;;;;;;;29.84;42.07;99416.25;25154;1314;3026634;-69
2022/08/30 07:11:33;;;;;;;19.10;6.40;;;;;;;29.92;39.49;99411.89;25176;1314;3026759;-68
2022/08/30 07:14:02;;;;;;;21.50;6.10;;;;;;;29.98;36.79;99410.09;25141;1315;3069547;-70
2022/08/30 07:16:31;;;;;;;18.20;6.70;;;;;;;30.07;37.83;99410.75;25148;1315;3026761;-69
2022/08/30 07:19:01;;;;;;;19.30;6.40;;;;;;;30.19;37.45;99413.11;25146;1315;3026499;-65
2022/08/30 07:21:36;;;;;;;30.40;7.30;;;;;;;30.24;35.80;99410.73;25141;1315;3070417;-67
2022/08/30 07:24:06;;;;;;;23.10;7.90;;;;;;;30.28;36.09;99411.67;25116;1315;3053652;-70
2022/08/30 07:26:41;;;;;;;32.70;7.90;;;;;;;30.37;36.20;99411.72;25237;1315;3026579;-68
2022/08/30 07:29:10;;;;;;;17.00;6.80;;;;;;;30.43;35.44;99413.42;25130;1313;3051980;-70
2022/08/30 07:31:39;;;;;;;37.20;7.80;;;;;;;30.50;36.06;99413.11;25115;1313;3026350;-65
2022/08/30 07:34:08;;;;;;;17.80;7.60;;;;;;;30.60;36.28;99411.71;25104;1313;3027091;-67
2022/08/30 07:36:37;;;;;;;20.50;7.20;;;;;;;30.68;36.02;99408.00;25159;1315;3055002;-67
2022/08/30 07:39:06;;;;;;;21.50;8.40;;;;;;;30.77;36.89;99408.80;25129;1314;3030172;-70
2022/08/30 07:41:37;;;;;;;26.50;8.70;;;;;;;30.87;37.04;99406.42;25180;1315;3054621;-66
2022/08/30 07:44:07;;;;;;;23.20;8.90;;;;;;;30.99;36.77;99413.37;25168;1313;3027314;-67
2022/08/30 07:46:36;;;;;;;25.10;8.80;;;;;;;31.06;36.26;99406.91;25179;1315;3027148;-70
2022/08/30 07:49:06;;;;;;;26.10;8.80;;;;;;;31.10;35.41;99408.20;25118;1315;3027374;-66
2022/08/30 07:51:36;;;;;;;21.50;8.50;;;;;;;31.19;36.91;99407.55;25146;1315;3026875;-66
2022/08/30 07:54:05;;;;;;;26.80;8.90;;;;;;;31.23;34.80;99406.77;25157;1314;3026890;-69
2022/08/30 07:56:35;;;;;;;29.00;9.10;;;;;;;31.29;35.03;99404.44;25166;1313;3027013;-69
2022/08/30 07:59:04;;;;;;;33.40;9.40;;;;;;;31.32;34.43;99404.56;25143;1313;3027414;-68
2022/08/30 08:01:33;;;;;;;22.00;9.10;;;;;;;31.41;36.68;99405.72;25141;1313;3052267;-70
2022/08/30 08:04:02;;;;;;;31.60;9.50;;;;;;;31.47;37.42;99409.10;25138;1313;3027714;-69
2022/08/30 08:06:32;;;;;;;25.10;9.60;;;;;;;31.49;37.17;99407.40;25109;1313;3053929;-67
2022/08/30 08:09:01;;;;;;;26.50;9.90;;;;;;;31.56;36.62;99410.69;25185;1313;3029683;-69
2022/08/30 08:11:31;;;;;;;23.40;9.40;;;;;;;31.62;36.59;99411.77;25147;1313;3050011;-67
2022/08/30 08:14:01;;;;;;;37.30;10.00;;;;;;;31.63;36.43;99411.85;25126;1313;3026450;-69
2022/08/30 08:16:32;;;;;;;27.70;10.10;;;;;;;31.65;35.90;99409.29;25158;1315;3026874;-71
2022/08/30 08:19:01;;;;;;;27.60;9.90;;;;;;;31.74;35.83;99408.88;25127;1315;3027854;-69
2022/08/30 08:21:30;;;;;;;32.90;10.40;;;;;;;31.86;35.87;99407.05;25146;1313;3026919;-68
2022/08/30 08:23:59;;;;;;;27.00;10.60;;;;;;;31.96;36.11;99403.17;25174;1315;3050103;-69
2022/08/30 08:26:28;;;;;;;28.30;9.90;;;;;;;31.98;35.67;99404.14;25129;1313;3026651;-67
2022/08/30 08:28:58;;;;;;;26.90;10.50;;;;;;;32.03;35.43;99404.80;25132;1313;3026573;-68
2022/08/30 08:31:27;;;;;;;37.90;12.10;;;;;;;32.15;34.59;99405.45;25187;1313;3026305;-66
2022/08/30 08:33:58;;;;;;;35.10;11.30;;;;;;;32.21;34.27;99403.06;25101;1315;3070107;-68
2022/08/30 08:36:30;;;;;;;29.70;10.40;;;;;;;32.27;34.75;99402.49;25158;1313;3026300;-69
2022/08/30 08:38:59;;;;;;;28.20;10.60;;;;;;;32.35;34.66;99404.69;25150;1315;3026669;-69
2022/08/30 08:41:28;;;;;;;27.10;10.40;;;;;;;32.42;33.93;99401.20;25140;1313;3028890;-70
2022/08/30 08:43:57;;;;;;;28.50;10.60;;;;;;;32.51;34.02;99400.33;25175;1315;3026172;-69
2022/08/30 08:46:35;;;;;;;27.10;10.60;;;;;;;32.52;33.30;99397.58;25122;1315;3051809;-69
2022/08/30 08:49:05;;;;;;;28.60;11.40;;;;;;;32.59;33.09;99391.70;25166;1315;3055105;-67
2022/08/30 08:54:38;;;;;;;27.00;10.50;;;;;;;32.70;32.93;99385.07;25152;1313;3052827;-69
2022/08/30 08:57:08;;;;;;;30.20;10.00;;;;;;;32.75;32.77;99379.54;25109;1315;3055828;-69
2022/08/30 08:59:37;;;;;;;28.30;10.60;;;;;;;32.81;32.45;99378.26;25180;1313;3026603;-70
2022/08/30 09:02:40;;;;;;;29.10;10.70;;;;;;;32.85;32.29;99377.84;25134;1313;3028303;-71
2022/08/30 09:05:12;;;;;;;36.30;10.40;;;;;;;32.91;31.48;99376.48;25050;1318;3056298;-68
2022/08/30 09:07:44;;;;;;;24.30;9.50;;;;;;;33.03;31.68;99374.55;25120;1315;3027431;-70
2022/08/30 09:10:14;;;;;;;26.10;9.10;;;;;;;33.20;30.21;99367.71;25122;1315;3026602;-67
2022/08/30 09:12:46;;;;;;;24.80;9.20;;;;;;;33.27;30.08;99367.70;25128;1313;3026552;-68
2022/08/30 09:15:24;;;;;;;21.50;9.90;;;;;;;33.33;30.10;99368.25;25162;1315;3052296;-68
2022/08/30 09:18:02;;;;;;;24.50;9.40;;;;;;;33.34;30.54;99364.08;25163;1313;3069143;-68
2022/08/30 09:20:32;;;;;;;30.00;9.60;;;;;;;33.39;30.38;99364.88;25126;1315;3052029;-70
2022/08/30 09:23:13;;;;;;;24.60;9.60;;;;;;;33.43;30.25;99361.89;25156;1315;3027298;-71
2022/08/30 09:25:52;;;;;;;24.60;9.30;;;;;;;33.55;29.04;99362.73;25115;1313;3068457;-70
2022/08/30 09:28:23;;;;;;;26.40;9.50;;;;;;;33.62;29.35;99362.58;25169;1315;3051843;-70
2022/08/30 09:31:23;;;;;;;19.10;8.80;;;;;;;33.68;29.04;99366.22;25144;1313;3026347;-70
2022/08/30 09:34:00;;;;;;;22.10;8.80;;;;;;;33.73;28.43;99366.52;25124;1315;3052513;-70
2022/08/30 09:36:42;;;;;;;22.10;8.60;;;;;;;33.76;27.67;99367.20;25141;1315;3055369;-69
2022/08/30 09:39:17;;;;;;;26.70;8.50;;;;;;;33.82;28.09;99368.46;25186;1313;3052638;-71
2022/08/30 09:41:48;;;;;;;21.20;9.00;;;;;;;33.93;27.65;99367.39;25175;1315;3055486;-68
2022/08/30 09:44:19;;;;;;;24.30;8.80;;;;;;;34.02;27.41;99370.90;25155;1313;3027735;-71
2022/08/30 09:46:50;;;;;;;24.20;8.60;;;;;;;33.96;26.97;99372.23;25188;1313;3027073;-68
2022/08/30 09:49:38;;;;;;;29.30;9.30;;;;;;;33.91;27.29;99368.61;25185;1313;3027598;-66
2022/08/30 09:52:12;;;;;;;19.80;8.40;;;;;;;34.06;27.23;99369.70;25162;1315;3054967;-66
2022/08/30 09:55:13;;;;;;;20.70;7.80;;;;;;;34.11;27.64;99370.01;25223;1313;3053623;-68
2022/08/30 09:58:08;;;;;;;20.50;8.40;;;;;;;34.18;27.54;99368.73;25085;1315;3056919;-67
2022/08/30 10:00:41;;;;;;;19.70;7.60;;;;;;;34.33;27.46;99368.58;25105;1315;3049996;-68
2022/08/30 10:03:28;;;;;;;20.80;8.50;;;;;;;34.45;26.92;99367.33;25129;1314;3026441;-67
2022/08/30 10:06:07;;;;;;;17.90;8.10;;;;;;;34.52;26.93;99363.80;25086;1313;3054848;-68
2022/08/30 10:08:51;;;;;;;21.20;8.60;;;;;;;34.59;26.48;99366.41;25117;1315;3069879;-68
2022/08/30 10:11:26;;;;;;;20.20;8.00;;;;;;;34.59;26.19;99358.77;25109;1315;3048797;-66
2022/08/30 10:14:24;;;;;;;16.20;7.90;;;;;;;34.62;26.68;99357.77;25072;1316;3055199;-66
2022/08/30 10:17:08;;;;;;;23.80;7.80;;;;;;;34.61;26.58;99356.45;25085;1315;3052483;-66
2022/08/30 10:19:57;;;;;;;19.60;8.10;;;;;;;34.57;26.74;99355.23;25061;1315;3057945;-66
2022/08/30 10:22:32;;;;;;;15.30;7.70;;;;;;;34.65;26.99;99355.05;25123;1315;3049833;-64
2022/08/30 10:25:27;;;;;;;20.90;7.80;;;;;;;34.67;26.73;99349.58;25144;1315;3052998;-66
2022/08/30 10:28:27;;;;;;;15.90;7.30;;;;;;;34.77;26.78;99347.78;25129;1313;3054476;-66
2022/08/30 10:31:09;;;;;;;18.40;7.00;;;;;;;34.86;26.08;99343.16;25031;1315;3069864;-64
2022/08/30 10:33:41;;;;;;;18.40;7.70;;;;;;;34.93;26.28;99343.73;25139;1315;3051828;-68
2022/08/30 10:36:11;;;;;;;22.20;7.20;;;;;;;34.99;25.70;99338.29;25108;1316;3028259;-66
2022/08/30 10:38:45;;;;;;;19.90;7.00;;;;;;;35.03;25.90;99342.67;25151;1315;3026589;-70
2022/08/30 10:41:27;;;;;;;19.60;7.10;;;;;;;35.03;25.66;99343.35;25098;1315;3056470;-68
2022/08/30 10:44:01;;;;;;;21.50;7.00;;;;;;;35.05;25.71;99337.79;25079;1318;3051913;-64
2022/08/30 10:46:49;;;;;;;20.20;7.60;;;;;;;34.97;25.39;99337.33;25164;1315;3056455;-70
2022/08/30 10:49:21;;;;;;;12.60;6.80;;;;;;;34.82;25.51;99334.59;25118;1315;3051809;-67
2022/08/30 10:52:24;;;;;;;16.10;6.90;;;;;;;34.88;25.46;99334.62;25131;1315;3026515;-68
2022/08/30 10:55:27;;;;;;;21.40;7.70;;;;;;;34.89;25.30;99333.66;25139;1313;3049526;-67
2022/08/30 10:58:00;;;;;;;15.60;7.00;;;;;;;34.77;24.65;99332.23;25039;1315;3050998;-68
2022/08/30 11:00:35;;;;;;;17.00;7.30;;;;;;;34.84;24.84;99325.23;25036;1315;3026526;-65
2022/08/30 11:03:23;;;;;;;19.10;6.90;;;;;;;34.95;25.68;99323.98;25097;1315;3058424;-67
2022/08/30 11:06:14;;;;;;;19.60;7.50;;;;;;;35.08;25.78;99320.36;25109;1315;3052956;-60
2022/08/30 11:09:11;;;;;;;27.00;7.60;;;;;;;35.07;25.62;99320.94;25069;1315;3056018;-66
2022/08/30 11:11:59;;;;;;;18.60;7.20;;;;;;;35.10;25.30;99319.39;25053;1313;3054386;-67
2022/08/30 11:14:30;;;;;;;21.60;7.00;;;;;;;35.12;25.38;99317.82;25109;1315;3071894;-65
2022/08/30 11:17:00;;;;;;;18.30;6.60;;;;;;;35.21;25.36;99317.73;25049;1315;3028584;-67
2022/08/30 11:19:37;;;;;;;21.80;7.10;;;;;;;35.33;25.21;99319.72;25078;1315;3051412;-68
2022/08/30 11:22:10;;;;;;;14.10;6.80;;;;;;;35.39;24.79;99319.06;25097;1315;3069043;-67
2022/08/30 11:25:01;;;;;;;18.30;6.90;;;;;;;35.46;25.03;99313.48;25082;1314;3048785;-65
2022/08/30 11:27:43;;;;;;;16.00;6.50;;;;;;;35.42;24.71;99315.98;25103;1315;3055440;-65
2022/08/30 11:30:25;;;;;;;21.90;7.40;;;;;;;35.28;25.52;99319.33;25071;1315;3054710;-63
2022/08/30 11:33:09;;;;;;;16.70;7.60;;;;;;;35.23;25.16;99319.17;25126;1315;3056969;-64
2022/08/30 11:35:48;;;;;;;13.60;6.40;;;;;;;35.19;24.95;99316.96;25128;1315;3052631;-65
2022/08/30 11:38:17;;;;;;;23.90;7.10;;;;;;;35.24;25.19;99316.95;25042;1317;3052639;-65